Time;durP1;ratioP1;P1;durP2;ratioP2;P2;SDS_P1;SDS_P2;PMS_P1;PMS_P2;Temp;Humidity;BMP_temperature;BMP_pressure;BME280_temperature;BME280_humidity;BME280_pressure;Samples;Min_cycle;Max_cycle;Signal;HPM_P1;HPM_P2
2022/05/18 00:00:27;;;;;;;3.53;1.93;;;24.10;67.20;;;;;;4999863;28;20256;-92
2022/05/18 00:02:58;;;;;;;2.23;1.70;;;24.10;67.20;;;;;;5000032;28;20177;-92
2022/05/18 00:05:25;;;;;;;2.00;1.80;;;24.00;67.10;;;;;;4999844;28;20251;-93
2022/05/18 00:07:51;;;;;;;2.40;1.73;;;24.00;67.70;;;;;;5000147;28;20192;-92
2022/05/18 00:10:17;;;;;;;2.47;1.70;;;24.00;67.10;;;;;;5000958;28;20249;-93
2022/05/18 00:12:45;;;;;;;2.27;1.80;;;24.00;67.00;;;;;;5000690;28;20184;-93
2022/05/18 00:15:12;;;;;;;3.03;1.90;;;24.00;67.10;;;;;;5000062;28;20540;-92
2022/05/18 00:17:38;;;;;;;1.97;1.40;;;24.00;67.10;;;;;;5000912;28;20235;-93
2022/05/18 00:20:04;;;;;;;3.83;1.80;;;24.00;67.10;;;;;;4998003;28;20181;-93
2022/05/18 00:22:29;;;;;;;2.40;1.70;;;24.00;66.90;;;;;;4999545;28;20181;-93
2022/05/18 00:24:55;;;;;;;2.43;1.70;;;24.00;67.00;;;;;;4980398;28;20063;-93
2022/05/18 00:27:21;;;;;;;4.07;2.00;;;24.00;67.00;;;;;;4996027;28;20504;-92
2022/05/18 00:29:47;;;;;;;3.63;1.70;;;24.00;67.00;;;;;;4996644;28;20177;-92
2022/05/18 00:32:12;;;;;;;2.60;1.83;;;24.00;66.90;;;;;;4997814;28;20262;-92
2022/05/18 00:34:38;;;;;;;2.23;1.80;;;24.00;66.90;;;;;;4997889;28;20251;-92
2022/05/18 00:37:04;;;;;;;2.00;1.80;;;24.00;66.90;;;;;;4998017;28;20596;-92
2022/05/18 00:39:30;;;;;;;1.70;1.47;;;24.00;66.90;;;;;;4998340;28;20178;-92
2022/05/18 00:41:55;;;;;;;2.33;1.77;;;23.90;66.80;;;;;;4996940;28;20504;-91
2022/05/18 00:44:21;;;;;;;2.10;1.80;;;24.00;66.80;;;;;;4998282;28;20178;-92
2022/05/18 00:46:47;;;;;;;2.33;1.90;;;23.90;66.70;;;;;;4998844;28;20196;-92
2022/05/18 00:49:13;;;;;;;2.07;1.80;;;23.90;66.60;;;;;;4997622;28;20182;-92
2022/05/18 00:51:44;;;;;;;1.93;1.70;;;23.90;66.50;;;;;;4998801;28;20247;-92
2022/05/18 00:54:28;;;;;;;2.00;1.80;;;23.90;67.30;;;;;;5000015;28;20211;-92
2022/05/18 00:57:00;;;;;;;1.70;1.53;;;23.90;66.60;;;;;;5000810;28;20585;-91
2022/05/18 00:59:49;;;;;;;2.10;1.60;;;23.90;66.60;;;;;;5000421;28;20178;-91
2022/05/18 01:04:44;;;;;;;1.70;1.60;;;23.90;66.70;;;;;;5075778;28;20215;-2
2022/05/18 01:07:16;;;;;;;2.47;1.60;;;23.90;66.40;;;;;;5077849;28;20241;-2
2022/05/18 01:09:44;;;;;;;2.37;1.70;;;23.90;66.50;;;;;;5076964;28;20183;-2
2022/05/18 01:12:14;;;;;;;1.80;1.60;;;23.90;66.40;;;;;;5060348;28;20218;-3
2022/05/18 01:14:51;;;;;;;1.70;1.60;;;23.90;66.60;;;;;;5077526;28;20203;-3
2022/05/18 01:17:20;;;;;;;2.50;1.50;;;23.90;66.50;;;;;;5060971;28;20183;-3
2022/05/18 01:19:56;;;;;;;1.70;1.53;;;23.90;66.40;;;;;;5060721;28;20317;-4
2022/05/18 01:23:09;;;;;;;1.87;1.50;;;23.90;66.50;;;;;;5060650;28;20226;-4
2022/05/18 01:26:22;;;;;;;2.30;1.67;;;23.80;66.20;;;;;;4996846;28;20182;-3
2022/05/18 01:29:05;;;;;;;2.17;1.70;;;23.80;66.40;;;;;;4976121;28;20205;-4
2022/05/18 01:32:11;;;;;;;3.03;1.53;;;23.80;66.30;;;;;;5070092;28;20191;-3
2022/05/18 01:34:41;;;;;;;1.50;1.40;;;23.80;66.40;;;;;;4980588;28;20224;-3
2022/05/18 01:37:10;;;;;;;2.00;1.60;;;23.80;66.30;;;;;;4996411;28;20597;-5
2022/05/18 01:39:48;;;;;;;2.93;1.60;;;23.80;66.20;;;;;;4981024;28;20561;-3
2022/05/18 01:42:39;;;;;;;2.40;1.70;;;23.80;66.30;;;;;;5005317;28;20248;-3
2022/05/18 01:45:06;;;;;;;2.90;1.93;;;23.80;66.40;;;;;;5077058;28;20446;-6
2022/05/18 01:47:40;;;;;;;2.27;1.70;;;23.80;66.30;;;;;;5077293;28;20175;-3
2022/05/18 01:50:09;;;;;;;1.83;1.50;;;23.70;66.30;;;;;;5060001;28;20182;-3
2022/05/18 01:52:36;;;;;;;1.50;1.40;;;23.70;66.30;;;;;;5059166;28;20180;-4
2022/05/18 01:55:03;;;;;;;1.87;1.30;;;23.70;66.10;;;;;;5059184;28;20237;-3
2022/05/18 01:57:29;;;;;;;2.13;1.60;;;23.70;66.20;;;;;;5076336;28;20554;-4
2022/05/18 01:59:54;;;;;;;3.20;1.73;;;23.70;66.20;;;;;;5076738;28;20174;-4
2022/05/18 02:02:22;;;;;;;1.60;1.50;;;23.70;66.20;;;;;;5059077;28;20164;-4
2022/05/18 02:04:48;;;;;;;1.70;1.60;;;23.70;66.10;;;;;;5058615;28;20191;-4
2022/05/18 02:07:14;;;;;;;1.63;1.40;;;23.70;66.00;;;;;;5059009;28;20171;-5
2022/05/18 02:09:40;;;;;;;1.70;1.60;;;23.70;66.10;;;;;;5059133;28;20171;-5
2022/05/18 02:12:10;;;;;;;1.97;1.57;;;23.70;66.10;;;;;;5076221;28;20178;-5
2022/05/18 02:14:36;;;;;;;2.23;1.50;;;23.70;66.00;;;;;;5059148;28;20533;-6
2022/05/18 02:17:02;;;;;;;1.50;1.40;;;23.70;66.00;;;;;;5076012;28;20195;-4
2022/05/18 02:19:27;;;;;;;1.63;1.50;;;23.70;66.00;;;;;;5059067;28;20187;-5
2022/05/18 02:21:53;;;;;;;1.70;1.50;;;23.70;66.00;;;;;;5076417;28;20171;-4
2022/05/18 02:24:19;;;;;;;1.60;1.50;;;23.70;66.10;;;;;;5077048;28;19919;-4
2022/05/18 02:26:45;;;;;;;1.70;1.53;;;23.60;65.90;;;;;;5059185;28;20167;-5
2022/05/18 02:29:11;;;;;;;2.63;1.70;;;23.60;65.90;;;;;;5076377;28;20469;-5
2022/05/18 02:31:39;;;;;;;2.23;1.63;;;23.60;65.90;;;;;;5059270;28;20471;-4
2022/05/18 02:34:04;;;;;;;1.70;1.47;;;23.60;65.80;;;;;;5059528;28;20178;-5
2022/05/18 02:36:30;;;;;;;2.20;1.67;;;23.60;65.80;;;;;;5059483;28;20211;-3
2022/05/18 02:38:56;;;;;;;2.33;1.67;;;23.60;65.80;;;;;;5059154;28;20451;-4
2022/05/18 02:41:22;;;;;;;1.77;1.60;;;23.60;65.80;;;;;;5059370;28;20168;-6
2022/05/18 02:43:48;;;;;;;2.60;1.80;;;23.60;65.70;;;;;;5076461;28;20171;-3
2022/05/18 02:46:16;;;;;;;2.53;1.50;;;23.60;65.70;;;;;;5061610;22;20204;-92
2022/05/18 02:48:43;;;;;;;1.93;1.60;;;23.60;65.60;;;;;;5056943;28;20283;-91
2022/05/18 02:51:10;;;;;;;1.93;1.50;;;23.60;65.70;;;;;;5056670;28;20164;-93
2022/05/18 02:53:36;;;;;;;1.60;1.40;;;23.60;65.70;;;;;;5055184;28;20165;-93
2022/05/18 02:56:05;;;;;;;1.73;1.40;;;23.60;65.60;;;;;;5057049;28;20306;-93
2022/05/18 02:58:43;;;;;;;2.23;1.40;;;23.60;65.70;;;;;;5055477;28;20249;-93
2022/05/18 03:01:13;;;;;;;2.10;1.50;;;23.60;65.50;;;;;;5055123;28;20184;-91
2022/05/18 03:03:39;;;;;;;1.80;1.60;;;23.50;65.60;;;;;;5053884;28;20278;-93
2022/05/18 03:06:07;;;;;;;1.70;1.60;;;23.60;65.60;;;;;;5055990;28;20655;-92
2022/05/18 03:08:35;;;;;;;2.40;1.60;;;23.50;65.50;;;;;;5057300;28;20408;-93
2022/05/18 03:11:01;;;;;;;1.60;1.50;;;23.50;65.50;;;;;;5057741;28;20089;-92
2022/05/18 03:13:28;;;;;;;1.70;1.60;;;23.50;65.50;;;;;;5060164;28;20258;-92
2022/05/18 03:15:54;;;;;;;1.57;1.47;;;23.50;65.60;;;;;;5059371;28;20200;-92
2022/05/18 03:18:20;;;;;;;1.97;1.63;;;23.50;65.70;;;;;;5058267;28;20273;-92
2022/05/18 03:23:36;;;;;;;1.93;1.50;;;23.50;65.50;;;;;;5059418;28;20498;-92
2022/05/18 03:26:08;;;;;;;1.80;1.57;;;23.50;65.50;;;;;;5056025;28;20180;-92
2022/05/18 03:28:36;;;;;;;2.53;1.53;;;23.50;65.40;;;;;;5057009;28;20211;-91
2022/05/18 03:31:01;;;;;;;1.70;1.50;;;23.50;65.30;;;;;;5057435;28;20246;-93
2022/05/18 03:33:27;;;;;;;1.70;1.60;;;23.50;65.30;;;;;;5056398;28;20449;-92
2022/05/18 03:35:53;;;;;;;;;;;23.50;65.30;;;;;;5056888;28;19908;-93
2022/05/18 03:38:19;;;;;;;;;;;23.40;65.20;;;;;;5056367;28;20223;-91
2022/05/18 03:40:45;;;;;;;;;;;23.40;65.10;;;;;;5056824;28;19905;-92
2022/05/18 03:43:11;;;;;;;;;;;23.40;65.20;;;;;;5056579;28;19909;-91
2022/05/18 03:45:37;;;;;;;;;;;23.40;65.20;;;;;;5055716;28;19983;-92
2022/05/18 03:48:04;;;;;;;;;;;23.40;65.10;;;;;;5055390;28;19924;-92
2022/05/18 03:50:30;;;;;;;;;;;23.40;65.10;;;;;;5055656;28;19912;-92
2022/05/18 03:52:56;;;;;;;;;;;23.40;65.10;;;;;;5057760;28;19995;-91
2022/05/18 03:55:22;;;;;;;;;;;23.40;65.10;;;;;;5057240;28;20012;-91
2022/05/18 03:57:48;;;;;;;;;;;23.40;65.10;;;;;;5057515;28;19931;-91
2022/05/18 04:00:14;;;;;;;;;;;23.40;65.00;;;;;;5057836;28;19937;-91
2022/05/18 04:02:40;;;;;;;;;;;23.40;65.00;;;;;;5056197;28;19905;-92
2022/05/18 04:05:10;;;;;;;;;;;23.40;64.90;;;;;;5057711;28;19904;-91
2022/05/18 04:07:36;;;;;;;;;;;23.40;64.90;;;;;;5056989;28;20188;-92
2022/05/18 04:10:01;;;;;;;;;;;23.40;64.90;;;;;;5056549;28;19904;-93
2022/05/18 04:12:27;;;;;;;;;;;23.40;65.40;;;;;;5055047;28;19905;-92
2022/05/18 04:14:54;;;;;;;;;;;23.40;64.80;;;;;;5057624;28;20180;-92
2022/05/18 04:17:23;;;;;;;;;;;23.40;64.70;;;;;;5056859;28;19958;-92
2022/05/18 04:19:49;;;;;;;;;;;23.40;64.60;;;;;;5055648;28;20283;-92
2022/05/18 04:22:15;;;;;;;;;;;23.40;64.50;;;;;;5054507;28;19939;-92
2022/05/18 04:24:40;;;;;;;;;;;23.40;64.40;;;;;;5054172;28;19944;-92
2022/05/18 04:27:06;;;;;;;;;;;23.40;64.30;;;;;;5055387;28;19970;-92
2022/05/18 04:29:32;;;;;;;;;;;23.40;64.20;;;;;;5056900;28;19904;-93
2022/05/18 04:31:58;;;;;;;;;;;23.40;64.10;;;;;;5055734;28;19905;-92
2022/05/18 04:34:25;;;;;;;;;;;23.50;64.10;;;;;;5056910;28;19909;-92
2022/05/18 04:36:51;;;;;;;;;;;23.50;64.00;;;;;;5055127;28;20161;-92
2022/05/18 04:39:16;;;;;;;;;;;23.50;64.00;;;;;;5055105;28;19985;-92
2022/05/18 04:41:42;;;;;;;;;;;23.50;63.80;;;;;;5053374;28;19915;-92
2022/05/18 04:44:08;;;;;;;;;;;23.50;63.70;;;;;;5054889;28;20231;-92
2022/05/18 04:46:33;;;;;;;;;;;23.50;63.60;;;;;;5054917;28;19943;-92
2022/05/18 04:49:00;;;;;;;;;;;23.50;63.50;;;;;;5054554;28;19919;-92
2022/05/18 04:51:26;;;;;;;;;;;23.50;63.30;;;;;;5053473;28;19904;-92
2022/05/18 04:53:51;;;;;;;;;;;23.50;63.30;;;;;;5054865;28;19916;-92
2022/05/18 04:56:17;;;;;;;;;;;23.50;63.20;;;;;;5053550;28;19909;-92
2022/05/18 04:58:43;;;;;;;;;;;23.60;63.00;;;;;;5053199;28;19905;-92
2022/05/18 05:01:09;;;;;;;;;;;23.60;63.10;;;;;;5053599;28;19904;-92
2022/05/18 05:03:35;;;;;;;;;;;23.60;63.20;;;;;;5054260;28;19905;-91
2022/05/18 05:06:01;;;;;;;;;;;23.60;63.60;;;;;;5053852;28;19916;-92
2022/05/18 05:08:27;;;;;;;;;;;23.60;63.80;;;;;;5053112;28;19905;-91
2022/05/18 05:10:53;;;;;;;;;;;23.60;63.80;;;;;;5052060;28;19958;-92
2022/05/18 05:13:18;;;;;;;;;;;23.60;64.00;;;;;;5051695;28;20011;-91
2022/05/18 05:15:46;;;;;;;;;;;23.70;64.40;;;;;;5052192;28;19908;-92
2022/05/18 05:18:12;;;;;;;;;;;23.70;64.40;;;;;;5051978;28;19916;-91
2022/05/18 05:20:38;;;;;;;;;;;23.70;64.20;;;;;;5050943;28;19905;-92
2022/05/18 05:23:03;;;;;;;;;;;23.80;64.20;;;;;;5049452;28;20184;-92
2022/05/18 05:25:29;;;;;;;;;;;23.80;64.00;;;;;;5048952;28;20073;-92
2022/05/18 05:27:55;;;;;;;;;;;23.90;63.90;;;;;;5049265;28;20055;-92
2022/05/18 05:30:21;;;;;;;;;;;23.90;63.90;;;;;;5049469;28;19982;-92
2022/05/18 05:32:47;;;;;;;;;;;23.90;63.70;;;;;;5049779;28;20327;-92
2022/05/18 05:35:13;;;;;;;;;;;23.90;63.90;;;;;;5047382;28;20254;-92
2022/05/18 05:37:39;;;;;;;;;;;24.00;63.90;;;;;;5049332;28;19904;-92
2022/05/18 05:40:05;;;;;;;;;;;24.00;63.60;;;;;;5048550;28;19916;-91
2022/05/18 05:42:31;;;;;;;;;;;24.10;63.10;;;;;;5047437;28;19905;-91
2022/05/18 05:44:57;;;;;;;;;;;24.20;62.80;;;;;;5046638;28;19904;-91
2022/05/18 05:47:22;;;;;;;;;;;24.40;62.10;;;;;;5046430;28;19912;-92
2022/05/18 05:49:48;;;;;;;;;;;24.50;60.50;;;;;;5048034;28;20338;-92
2022/05/18 05:52:13;;;;;;;;;;;24.70;59.50;;;;;;5049247;28;19916;-91
2022/05/18 05:54:39;;;;;;;;;;;24.90;58.80;;;;;;5049074;28;19904;-91
2022/05/18 05:57:06;;;;;;;;;;;25.10;58.20;;;;;;5050145;28;19908;-91
2022/05/18 05:59:32;;;;;;;;;;;25.20;57.70;;;;;;5051875;28;19905;-92
2022/05/18 06:01:58;;;;;;;;;;;25.40;57.50;;;;;;5050503;28;19905;-92
2022/05/18 06:04:24;;;;;;;;;;;25.50;57.10;;;;;;5051520;28;19905;-92
2022/05/18 06:06:49;;;;;;;;;;;25.60;56.70;;;;;;5050193;28;20073;-92
2022/05/18 06:09:15;;;;;;;3.63;2.30;;;25.70;56.60;;;;;;5049768;28;20216;-92
2022/05/18 06:11:41;;;;;;;2.80;2.13;;;25.80;56.30;;;;;;5048217;28;20267;-92
2022/05/18 06:14:07;;;;;;;3.93;2.40;;;25.90;56.00;;;;;;5049097;28;20612;-93
2022/05/18 06:16:32;;;;;;;4.33;2.47;;;26.00;55.80;;;;;;5047034;28;20211;-92
2022/05/18 06:18:59;;;;;;;2.77;1.93;;;26.10;55.60;;;;;;5050621;28;20195;-93
2022/05/18 06:21:26;;;;;;;2.70;2.20;;;26.20;55.20;;;;;;5047869;28;20444;-92
2022/05/18 06:23:51;;;;;;;3.53;2.10;;;26.30;54.90;;;;;;5046280;28;20412;-92
2022/05/18 06:26:17;;;;;;;2.40;2.20;;;26.40;54.70;;;;;;5045823;28;20172;-92
2022/05/18 06:28:43;;;;;;;2.83;1.97;;;26.40;54.50;;;;;;5046609;28;20176;-92
2022/05/18 06:31:09;;;;;;;4.00;2.20;;;26.60;54.30;;;;;;5048499;28;20253;-93
2022/05/18 06:33:35;;;;;;;3.43;2.10;;;26.60;54.10;;;;;;5048092;28;20111;-91
2022/05/18 06:36:02;;;;;;;3.00;2.10;;;26.70;54.00;;;;;;5047073;28;20281;-91
2022/05/18 06:38:29;;;;;;;2.33;1.90;;;26.80;53.80;;;;;;5046626;28;20168;-92
2022/05/18 06:43:40;;;;;;;;;;;26.90;53.40;;;;;;5052756;28;20015;-92
2022/05/18 06:46:06;;;;;;;;;;;27.00;53.20;;;;;;5051992;28;19987;-91
2022/05/18 06:48:31;;;;;;;;;;;27.10;53.00;;;;;;5051148;28;19905;-92
2022/05/18 06:50:57;;;;;;;;;;;27.10;52.90;;;;;;5050778;28;19905;-91
2022/05/18 06:53:23;;;;;;;;;;;27.20;52.80;;;;;;5050623;28;20079;-92
2022/05/18 06:55:49;;;;;;;;;;;27.30;52.70;;;;;;5050469;28;20153;-91
2022/05/18 06:58:15;;;;;;;;;;;27.30;52.60;;;;;;5049486;28;19908;-91
2022/05/18 07:00:41;;;;;;;;;;;27.40;52.40;;;;;;5050150;28;19905;-91
2022/05/18 07:03:07;;;;;;;;;;;27.50;52.40;;;;;;5049662;28;20322;-91
2022/05/18 07:05:32;;;;;;;;;;;27.50;52.20;;;;;;5051665;28;19904;-92
2022/05/18 07:07:58;;;;;;;;;;;27.60;52.20;;;;;;5050392;28;20123;-91
2022/05/18 07:10:26;;;;;;;;;;;27.60;52.10;;;;;;5051013;28;20152;-92
2022/05/18 07:12:52;;;;;;;;;;;27.70;52.10;;;;;;5050882;28;19912;-91
2022/05/18 07:15:17;;;;;;;;;;;27.70;52.00;;;;;;5051224;28;19905;-92
2022/05/18 07:17:43;;;;;;;;;;;27.70;51.90;;;;;;5050239;28;19904;-92
2022/05/18 07:20:10;;;;;;;;;;;27.80;51.90;;;;;;5048072;28;19913;-92
2022/05/18 07:22:35;;;;;;;;;;;27.80;51.80;;;;;;5049825;28;20283;-92
2022/05/18 07:25:01;;;;;;;;;;;27.80;51.80;;;;;;5049573;28;19904;-92
2022/05/18 07:27:26;;;;;;;;;;;27.90;51.80;;;;;;5050488;28;19904;-92
2022/05/18 07:29:52;;;;;;;;;;;27.90;51.70;;;;;;5050279;28;19904;-92
2022/05/18 07:32:17;;;;;;;;;;;28.00;51.70;;;;;;5056614;28;20242;-92
2022/05/18 07:34:44;;;;;;;;;;;28.00;51.70;;;;;;5056225;28;19912;-92
2022/05/18 07:37:11;;;;;;;;;;;28.00;51.60;;;;;;5051017;28;20317;-91
2022/05/18 07:39:37;;;;;;;;;;;28.10;51.60;;;;;;5050691;28;19912;-92
2022/05/18 07:42:05;;;;;;;;;;;28.10;51.60;;;;;;5049115;28;19905;-92
2022/05/18 07:44:31;;;;;;;;;;;28.10;51.60;;;;;;5048797;28;19999;-91
2022/05/18 07:46:57;;;;;;;;;;;28.10;51.60;;;;;;5048489;28;19913;-92
2022/05/18 07:49:23;;;;;;;;;;;28.10;51.60;;;;;;5048370;28;20213;-92
2022/05/18 07:51:48;;;;;;;;;;;28.20;51.70;;;;;;5047213;28;19905;-92
2022/05/18 07:54:14;;;;;;;;;;;28.20;51.70;;;;;;5047348;28;19911;-92
2022/05/18 07:56:40;;;;;;;;;;;28.20;51.60;;;;;;5047359;28;20081;-92
2022/05/18 07:59:07;;;;;;;;;;;28.30;51.60;;;;;;5047217;28;19905;-92
2022/05/18 08:01:33;;;;;;;;;;;28.30;51.60;;;;;;5048158;28;19905;-92
2022/05/18 08:03:58;;;;;;;;;;;28.30;51.60;;;;;;5048727;28;19915;-91
2022/05/18 08:06:24;;;;;;;;;;;28.30;51.70;;;;;;5047179;28;19920;-92
2022/05/18 08:08:49;;;;;;;;;;;28.30;51.70;;;;;;5048497;28;20000;-92
2022/05/18 08:16:47;;;;;;;;;;;28.40;51.90;;;;;;5051451;28;20144;-92
2022/05/18 08:19:15;;;;;;;;;;;28.40;51.90;;;;;;5049489;28;20066;-92
2022/05/18 08:21:41;;;;;;;;;;;28.40;51.80;;;;;;5050103;28;19909;-92
2022/05/18 08:24:07;;;;;;;;;;;28.50;51.90;;;;;;5049379;28;19962;-93
2022/05/18 08:26:33;;;;;;;;;;;28.50;52.00;;;;;;5049821;28;19987;-93
2022/05/18 08:28:59;;;;;;;;;;;28.40;51.90;;;;;;5050414;28;20370;-93
2022/05/18 08:31:25;;;;;;;;;;;28.50;52.10;;;;;;5047464;28;20069;-93
2022/05/18 08:33:52;;;;;;;;;;;28.50;52.50;;;;;;5047755;28;19904;-94
2022/05/18 08:36:18;;;;;;;;;;;28.50;52.10;;;;;;5048980;28;19964;-93
2022/05/18 08:38:44;;;;;;;;;;;28.50;52.10;;;;;;5048048;28;20096;-93
2022/05/18 08:41:21;;;;;;;;;;;28.50;52.10;;;;;;5047395;28;20082;-93
2022/05/18 08:43:48;;;;;;;;;;;28.50;52.10;;;;;;5048136;28;19915;-93
2022/05/18 08:46:29;;;;;;;;;;;28.50;52.20;;;;;;5047350;28;19923;-93
2022/05/18 08:49:01;;;;;;;;;;;28.50;52.30;;;;;;5047520;28;20064;-93
2022/05/18 08:51:26;;;;;;;;;;;28.60;52.30;;;;;;5046437;28;19908;-93
2022/05/18 08:54:11;;;;;;;;;;;28.60;52.40;;;;;;5046414;28;19905;-93
2022/05/18 08:56:38;;;;;;;;;;;28.60;52.40;;;;;;5046427;28;20295;-93
2022/05/18 08:59:05;;;;;;;;;;;28.60;52.40;;;;;;5046106;28;19912;-92
2022/05/18 09:01:41;;;;;;;;;;;28.60;52.40;;;;;;5046298;28;19905;-92
2022/05/18 09:04:13;;;;;;;;;;;28.60;52.50;;;;;;5044416;28;19905;-92
2022/05/18 09:06:39;;;;;;;;;;;28.70;52.70;;;;;;5047265;28;20011;-92
2022/05/18 09:11:50;;;;;;;;;;;28.70;52.60;;;;;;5048082;28;20007;-93
2022/05/18 09:14:18;;;;;;;;;;;28.70;52.60;;;;;;5044915;28;20007;-93
2022/05/18 09:16:49;;;;;;;;;;;28.60;52.70;;;;;;5046514;28;20317;-92
2022/05/18 09:19:24;;;;;;;;;;;28.70;52.80;;;;;;5046281;28;19912;-92
2022/05/18 09:21:59;;;;;;;;;;;28.70;52.80;;;;;;5047342;28;19951;-92
2022/05/18 09:24:28;;;;;;;;;;;28.80;52.80;;;;;;5047022;28;20192;-92
2022/05/18 09:26:56;;;;;;;;;;;28.80;52.70;;;;;;5046027;28;19913;-92
2022/05/18 09:29:38;;;;;;;;;;;28.80;52.80;;;;;;5046903;28;19915;-90
2022/05/18 09:32:09;;;;;;;;;;;28.80;52.80;;;;;;5048200;28;20062;-89
2022/05/18 09:34:54;;;;;;;;;;;28.80;52.80;;;;;;5047387;28;19905;-89
2022/05/18 09:37:52;;;;;;;;;;;28.90;52.90;;;;;;5048319;28;19908;-90
2022/05/18 09:40:23;;;;;;;;;;;28.90;53.00;;;;;;4994087;28;20049;-90
2022/05/18 09:42:52;;;;;;;;;;;28.90;53.00;;;;;;5047533;28;19905;-89
2022/05/18 09:45:24;;;;;;;;;;;28.90;53.00;;;;;;5047199;28;19905;-89
2022/05/18 09:47:53;;;;;;;;;;;29.00;53.10;;;;;;5047217;28;19936;-90
2022/05/18 09:50:19;;;;;;;;;;;29.00;53.10;;;;;;5047813;28;19905;-89
2022/05/18 09:52:46;;;;;;;;;;;29.00;53.10;;;;;;5046248;28;19904;-89
2022/05/18 09:55:13;;;;;;;;;;;29.00;53.10;;;;;;5046761;28;20061;-89
2022/05/18 09:57:42;;;;;;;;;;;29.10;53.20;;;;;;5046346;28;19912;-89
2022/05/18 10:00:09;;;;;;;;;;;29.10;53.30;;;;;;5046670;28;19915;-89
2022/05/18 10:08:11;;;;;;;;;;;29.00;53.40;;;;;;5047757;28;20007;-89
2022/05/18 10:10:38;;;;;;;;;;;29.00;53.50;;;;;;5047471;28;19905;-89
2022/05/18 10:13:10;;;;;;;;;;;29.00;53.70;;;;;;5045894;28;20081;-89
2022/05/18 10:15:44;;;;;;;;;;;28.90;53.70;;;;;;5045956;28;19908;-89
2022/05/18 10:18:12;;;;;;;;;;;29.00;53.90;;;;;;5044526;28;19905;-90
2022/05/18 10:20:38;;;;;;;;;;;28.90;54.00;;;;;;5045764;28;20280;-89
2022/05/18 10:23:04;;;;;;;;;;;28.90;54.10;;;;;;5046300;28;19904;-89
2022/05/18 10:25:47;;;;;;;;;;;28.90;54.20;;;;;;5045039;28;19905;-89
2022/05/18 10:28:20;;;;;;;;;;;28.90;54.20;;;;;;5046719;28;20168;-89
2022/05/18 10:30:57;;;;;;;;;;;28.90;54.30;;;;;;5047139;28;20358;-90
2022/05/18 10:33:29;;;;;;;;;;;28.90;54.40;;;;;;5046783;28;20209;-89
2022/05/18 10:35:54;;;;;;;;;;;28.90;54.40;;;;;;5048179;28;19920;-89
2022/05/18 10:38:22;;;;;;;;;;;28.90;54.50;;;;;;5045075;28;20219;-89
2022/05/18 10:40:48;;;;;;;;;;;28.90;54.60;;;;;;5046730;28;19981;-89
2022/05/18 10:43:40;;;;;;;;;;;28.90;54.60;;;;;;5047919;28;20211;-89
2022/05/18 10:46:26;;;;;;;;;;;28.90;54.70;;;;;;5008954;28;19948;-89
2022/05/18 10:48:59;;;;;;;;;;;28.90;54.80;;;;;;5045224;28;19908;-89
2022/05/18 10:51:30;;;;;;;;;;;28.90;54.90;;;;;;5043476;28;19905;-89
2022/05/18 10:54:05;;;;;;;;;;;28.90;55.00;;;;;;5044011;28;20287;-89
2022/05/18 10:56:31;;;;;;;;;;;28.90;55.10;;;;;;5044505;28;20268;-89
2022/05/18 10:59:15;;;;;;;;;;;28.90;55.10;;;;;;5045124;28;19931;-89
2022/05/18 11:02:04;;;;;;;;;;;28.90;55.10;;;;;;5043687;28;20382;-89
2022/05/18 11:04:38;;;;;;;;;;;28.90;55.10;;;;;;4997278;28;19911;-89
2022/05/18 11:07:05;;;;;;;;;;;28.90;55.30;;;;;;5043941;28;19904;-89
2022/05/18 11:09:32;;;;;;;;;;;28.90;55.30;;;;;;5044664;28;20149;-89
2022/05/18 11:12:01;;;;;;;;;;;28.90;55.30;;;;;;5043883;28;19912;-89
2022/05/18 11:14:45;;;;;;;;;;;28.90;55.40;;;;;;5044127;28;19905;-89
2022/05/18 11:17:10;;;;;;;;;;;28.90;55.50;;;;;;5043377;28;20003;-89
2022/05/18 11:19:39;;;;;;;;;;;28.90;55.60;;;;;;5044358;28;19982;-90
2022/05/18 11:22:08;;;;;;;;;;;28.90;55.70;;;;;;5044166;28;19905;-90
2022/05/18 11:24:39;;;;;;;;;;;28.90;55.70;;;;;;5044218;28;19905;-90
2022/05/18 11:27:16;;;;;;;;;;;28.90;55.70;;;;;;5049468;28;20307;-90
2022/05/18 11:29:58;;;;;;;;;;;28.90;55.80;;;;;;5049269;28;19948;-90
2022/05/18 11:32:31;;;;;;;;;;;28.90;55.80;;;;;;5046238;28;20081;-90
2022/05/18 11:35:17;;;;;;;;;;;28.90;55.90;;;;;;5046546;28;20007;-90
2022/05/18 11:38:21;;;;;;;;;;;28.90;56.00;;;;;;5045991;28;19916;-90
2022/05/18 11:40:49;;;;;;;;;;;28.90;56.00;;;;;;4950787;28;19914;-91
2022/05/18 11:43:35;;;;;;;;;;;28.90;56.10;;;;;;4952635;28;20015;-91
2022/05/18 11:46:20;;;;;;;;;;;28.90;56.10;;;;;;5010495;28;19915;-91
2022/05/18 11:48:51;;;;;;;;;;;28.90;56.20;;;;;;5048939;28;19944;-91
2022/05/18 11:51:40;;;;;;;;;;;28.90;56.20;;;;;;5048070;28;19940;-90
2022/05/18 11:54:25;;;;;;;;;;;28.90;56.30;;;;;;5001763;28;20338;-91
2022/05/18 11:57:01;;;;;;;;;;;28.90;56.40;;;;;;5046074;28;19909;-91
2022/05/18 11:59:51;;;;;;;;;;;28.90;56.50;;;;;;5047312;28;19912;-92
2022/05/18 12:02:26;;;;;;;;;;;28.90;56.50;;;;;;5047035;28;20003;-91
2022/05/18 12:05:10;;;;;;;;;;;28.90;56.60;;;;;;5048146;28;19916;-91
2022/05/18 12:07:52;;;;;;;;;;;28.90;56.70;;;;;;5047952;28;20260;-91
2022/05/18 12:10:20;;;;;;;;;;;28.90;56.60;;;;;;5048221;28;20003;-91
2022/05/18 12:12:46;;;;;;;;;;;28.90;56.70;;;;;;5047310;28;20392;-91
2022/05/18 12:15:11;;;;;;;;;;;29.00;56.90;;;;;;5046935;28;19948;-89
2022/05/18 12:17:41;;;;;;;;;;;29.00;56.90;;;;;;5047165;28;19909;-90
2022/05/18 12:20:13;;;;;;;;;;;29.00;57.00;;;;;;5046607;28;20150;-91
2022/05/18 12:22:58;;;;;;;;;;;29.00;57.10;;;;;;5048812;28;19905;-90
2022/05/18 12:25:24;;;;;;;;;;;29.00;57.20;;;;;;5047563;28;19913;-90
2022/05/18 12:27:52;;;;;;;;;;;29.00;57.20;;;;;;5048111;28;19905;-90
2022/05/18 12:30:19;;;;;;;;;;;29.00;57.30;;;;;;5048180;28;20052;-90
2022/05/18 12:32:46;;;;;;;;;;;29.00;57.30;;;;;;5046246;28;20223;-90
2022/05/18 12:35:32;;;;;;;;;;;29.00;57.50;;;;;;5046135;28;20077;-90
2022/05/18 12:37:58;;;;;;;;;;;29.00;57.50;;;;;;5047167;28;20052;-90
2022/05/18 12:40:29;;;;;;;;;;;29.00;57.50;;;;;;5046344;28;20165;-90
2022/05/18 12:43:04;;;;;;;;;;;29.00;57.60;;;;;;5047311;28;19904;-90
2022/05/18 12:45:36;;;;;;;;;;;29.00;57.60;;;;;;5046687;28;19972;-90
2022/05/18 12:48:11;;;;;;;;;;;29.00;57.60;;;;;;5046508;28;20148;-90
2022/05/18 12:50:59;;;;;;;;;;;29.00;57.70;;;;;;5045934;28;20042;-90
2022/05/18 12:53:26;;;;;;;;;;;29.10;57.90;;;;;;5045940;28;19904;-90
2022/05/18 12:55:52;;;;;;;;;;;29.10;57.90;;;;;;5044144;28;19909;-90
2022/05/18 12:58:26;;;;;;;;;;;29.10;57.90;;;;;;5044844;28;19970;-90
2022/05/18 13:01:07;;;;;;;;;;;29.10;58.00;;;;;;5045643;28;19913;-91
2022/05/18 13:03:41;;;;;;;;;;;29.10;58.00;;;;;;5046733;28;20140;-91
2022/05/18 13:06:12;;;;;;;;;;;29.10;58.10;;;;;;5055570;28;20001;-91
2022/05/18 13:08:37;;;;;;;;;;;29.10;58.00;;;;;;5044745;28;19947;-92
2022/05/18 13:11:06;;;;;;;;;;;29.10;58.60;;;;;;5046158;28;20252;-91
2022/05/18 13:13:34;;;;;;;;;;;29.10;58.10;;;;;;5046388;28;19908;-92
2022/05/18 13:16:00;;;;;;;;;;;29.10;58.20;;;;;;5046289;28;19909;-92
2022/05/18 13:18:36;;;;;;;;;;;29.10;58.30;;;;;;5046988;28;19909;-92
2022/05/18 13:21:02;;;;;;;;;;;29.10;58.30;;;;;;5045780;28;20146;-92
2022/05/18 13:23:27;;;;;;;;;;;29.10;58.30;;;;;;5045212;28;20062;-93
2022/05/18 13:25:58;;;;;;;;;;;29.10;58.50;;;;;;5047504;28;19905;-93
2022/05/18 13:28:25;;;;;;;;;;;29.10;58.40;;;;;;5049973;28;19909;-93
2022/05/18 13:30:52;;;;;;;;;;;29.10;58.60;;;;;;5047079;28;19909;-93
2022/05/18 13:33:19;;;;;;;;;;;29.20;58.70;;;;;;5048318;28;19905;-93
2022/05/18 13:35:47;;;;;;;;;;;29.20;58.60;;;;;;5048693;28;19940;-92
2022/05/18 13:38:17;;;;;;;;;;;29.10;58.50;;;;;;5047211;28;20156;-92
2022/05/18 13:40:45;;;;;;;;;;;29.20;58.40;;;;;;5045067;28;19912;-93
2022/05/18 13:43:12;;;;;;;;;;;29.20;58.30;;;;;;5048192;28;19904;-93
2022/05/18 13:45:42;;;;;;;;;;;29.20;58.40;;;;;;5045608;28;20031;-93
2022/05/18 13:48:09;;;;;;;;;;;29.20;58.50;;;;;;5044620;28;20148;-93
2022/05/18 13:50:43;;;;;;;;;;;29.20;58.50;;;;;;5046435;28;19904;-93
2022/05/18 13:53:13;;;;;;;;;;;29.20;58.50;;;;;;5046551;28;20188;-93
2022/05/18 13:55:40;;;;;;;;;;;29.20;58.60;;;;;;5046689;28;19995;-94
2022/05/18 13:58:08;;;;;;;;;;;29.20;58.50;;;;;;5045974;28;20347;-92
2022/05/18 14:00:43;;;;;;;;;;;29.20;58.60;;;;;;5045022;28;20164;-92
2022/05/18 14:03:12;;;;;;;;;;;29.20;58.70;;;;;;5045716;28;19986;-92
2022/05/18 14:05:39;;;;;;;;;;;29.10;58.50;;;;;;5046897;28;20267;-92
2022/05/18 14:08:20;;;;;;;;;;;29.10;58.60;;;;;;5046044;28;19905;-92
2022/05/18 14:10:46;;;;;;;;;;;29.10;58.60;;;;;;5046574;28;19905;-91
2022/05/18 14:13:11;;;;;;;;;;;29.20;58.60;;;;;;5047116;28;19908;-92
2022/05/18 14:15:38;;;;;;;;;;;29.20;58.60;;;;;;5046326;28;19947;-92
2022/05/18 14:18:06;;;;;;;;;;;29.20;58.60;;;;;;5047714;28;19905;-92
2022/05/18 14:20:37;;;;;;;;;;;29.20;58.60;;;;;;5046769;28;19905;-92
2022/05/18 14:23:05;;;;;;;;;;;29.20;58.70;;;;;;5048614;28;20268;-92
2022/05/18 14:25:33;;;;;;;;;;;29.20;58.60;;;;;;5047563;28;20044;-92